Terminal Aerodrome Forecast
Issued by NWS

Home | Current Version | Previous Version | Text Only | Print | Product List | Glossary On
Versions: 1 2 3 4 5 6 7 8 9 10 11 12 13 14 15 16 17
000
FTUS45 KREV 232300
TAFTVL
TAF
KTVL 232333Z 2400/2424 19005KT P6SM FEW060 SCT200
     FM241800 19012G27KT P6SM SCT100 SCT180=

USA.gov is the U.S. government's official web portal to all federal, state and local government web resources and services.